sensor_id;sensor_type;location;lat;lon;timestamp;temperature;humidity
35635;DHT22;21757;43.610;1.440;2023-05-07T00:00:04;17.40;1.00
35635;DHT22;21757;43.610;1.440;2023-05-07T00:02:34;17.40;1.00
35635;DHT22;21757;43.610;1.440;2023-05-07T00:05:00;17.40;1.00
35635;DHT22;21757;43.610;1.440;2023-05-07T00:07:26;17.40;99.90
35635;DHT22;21757;43.610;1.440;2023-05-07T00:09:52;17.30;1.00
35635;DHT22;21757;43.610;1.440;2023-05-07T00:12:18;17.30;1.00
35635;DHT22;21757;43.610;1.440;2023-05-07T00:14:43;17.30;99.90
35635;DHT22;21757;43.610;1.440;2023-05-07T00:17:13;17.30;99.90
35635;DHT22;21757;43.610;1.440;2023-05-07T00:19:39;17.40;1.00
35635;DHT22;21757;43.610;1.440;2023-05-07T00:22:04;17.30;1.00
35635;DHT22;21757;43.610;1.440;2023-05-07T00:24:30;17.30;1.00
35635;DHT22;21757;43.610;1.440;2023-05-07T00:26:56;17.20;1.00
35635;DHT22;21757;43.610;1.440;2023-05-07T00:29:23;17.30;1.00
35635;DHT22;21757;43.610;1.440;2023-05-07T00:31:49;17.10;1.00
35635;DHT22;21757;43.610;1.440;2023-05-07T00:34:16;17.20;1.00
35635;DHT22;21757;43.610;1.440;2023-05-07T00:36:41;17.20;1.00
35635;DHT22;21757;43.610;1.440;2023-05-07T00:39:07;17.20;1.00
35635;DHT22;21757;43.610;1.440;2023-05-07T00:41:33;17.20;1.00
35635;DHT22;21757;43.610;1.440;2023-05-07T00:43:58;17.20;1.00
35635;DHT22;21757;43.610;1.440;2023-05-07T00:46:24;17.20;1.00
35635;DHT22;21757;43.610;1.440;2023-05-07T00:48:51;17.10;1.00
35635;DHT22;21757;43.610;1.440;2023-05-07T00:51:17;17.10;1.00
35635;DHT22;21757;43.610;1.440;2023-05-07T00:53:44;17.10;1.00
35635;DHT22;21757;43.610;1.440;2023-05-07T00:56:10;17.10;1.00
35635;DHT22;21757;43.610;1.440;2023-05-07T00:58:37;17.10;1.00
35635;DHT22;21757;43.610;1.440;2023-05-07T01:01:03;17.10;1.00
35635;DHT22;21757;43.610;1.440;2023-05-07T01:06:20;16.90;1.00
35635;DHT22;21757;43.610;1.440;2023-05-07T01:08:47;16.90;1.00
35635;DHT22;21757;43.610;1.440;2023-05-07T01:11:14;16.90;1.00
35635;DHT22;21757;43.610;1.440;2023-05-07T01:16:15;17.00;1.00
35635;DHT22;21757;43.610;1.440;2023-05-07T01:18:41;17.00;1.00
35635;DHT22;21757;43.610;1.440;2023-05-07T01:21:07;17.00;1.00
35635;DHT22;21757;43.610;1.440;2023-05-07T01:23:36;17.00;1.00
35635;DHT22;21757;43.610;1.440;2023-05-07T01:26:02;17.00;1.00
35635;DHT22;21757;43.610;1.440;2023-05-07T01:28:28;17.00;1.00
35635;DHT22;21757;43.610;1.440;2023-05-07T01:31:00;16.90;1.00
35635;DHT22;21757;43.610;1.440;2023-05-07T01:33:27;16.90;1.00
35635;DHT22;21757;43.610;1.440;2023-05-07T01:35:55;16.90;1.00
35635;DHT22;21757;43.610;1.440;2023-05-07T01:38:22;16.80;1.00
35635;DHT22;21757;43.610;1.440;2023-05-07T01:40:49;16.80;1.00
35635;DHT22;21757;43.610;1.440;2023-05-07T01:43:14;16.70;1.00
35635;DHT22;21757;43.610;1.440;2023-05-07T01:45:41;16.80;1.00
35635;DHT22;21757;43.610;1.440;2023-05-07T01:48:09;16.70;1.00
35635;DHT22;21757;43.610;1.440;2023-05-07T01:50:35;16.70;1.00
35635;DHT22;21757;43.610;1.440;2023-05-07T01:53:02;16.70;1.00
35635;DHT22;21757;43.610;1.440;2023-05-07T01:55:28;16.80;1.00
35635;DHT22;21757;43.610;1.440;2023-05-07T01:57:53;16.80;1.00
35635;DHT22;21757;43.610;1.440;2023-05-07T02:00:19;16.80;1.00
35635;DHT22;21757;43.610;1.440;2023-05-07T02:02:45;16.70;1.00
35635;DHT22;21757;43.610;1.440;2023-05-07T02:05:11;16.70;1.00
35635;DHT22;21757;43.610;1.440;2023-05-07T02:07:37;16.70;1.00
35635;DHT22;21757;43.610;1.440;2023-05-07T02:10:02;16.70;1.00
35635;DHT22;21757;43.610;1.440;2023-05-07T02:12:28;16.70;1.00
35635;DHT22;21757;43.610;1.440;2023-05-07T02:14:54;16.70;34.90
35635;DHT22;21757;43.610;1.440;2023-05-07T02:17:20;16.60;1.00
35635;DHT22;21757;43.610;1.440;2023-05-07T02:19:45;16.70;1.00
35635;DHT22;21757;43.610;1.440;2023-05-07T02:22:11;16.60;1.00
35635;DHT22;21757;43.610;1.440;2023-05-07T02:24:36;16.70;1.00
35635;DHT22;21757;43.610;1.440;2023-05-07T02:27:02;16.60;1.00
35635;DHT22;21757;43.610;1.440;2023-05-07T02:29:29;16.60;1.00
35635;DHT22;21757;43.610;1.440;2023-05-07T02:31:54;16.70;1.00
35635;DHT22;21757;43.610;1.440;2023-05-07T02:34:21;16.60;1.00
35635;DHT22;21757;43.610;1.440;2023-05-07T02:36:46;16.60;1.00
35635;DHT22;21757;43.610;1.440;2023-05-07T02:39:13;16.50;1.00
35635;DHT22;21757;43.610;1.440;2023-05-07T02:41:38;16.50;1.00
35635;DHT22;21757;43.610;1.440;2023-05-07T02:44:04;16.50;1.00
35635;DHT22;21757;43.610;1.440;2023-05-07T02:46:30;16.40;1.00
35635;DHT22;21757;43.610;1.440;2023-05-07T02:48:56;16.50;1.00
35635;DHT22;21757;43.610;1.440;2023-05-07T02:51:22;16.60;1.00
35635;DHT22;21757;43.610;1.440;2023-05-07T02:53:49;16.60;1.00
35635;DHT22;21757;43.610;1.440;2023-05-07T02:56:14;16.50;1.00
35635;DHT22;21757;43.610;1.440;2023-05-07T02:58:40;16.40;1.00
35635;DHT22;21757;43.610;1.440;2023-05-07T03:01:08;16.40;1.00
35635;DHT22;21757;43.610;1.440;2023-05-07T03:03:34;16.30;1.00
35635;DHT22;21757;43.610;1.440;2023-05-07T03:06:00;16.40;1.00
35635;DHT22;21757;43.610;1.440;2023-05-07T03:08:26;16.30;1.00
35635;DHT22;21757;43.610;1.440;2023-05-07T03:10:51;16.30;1.00
35635;DHT22;21757;43.610;1.440;2023-05-07T03:13:18;16.20;1.00
35635;DHT22;21757;43.610;1.440;2023-05-07T03:15:43;16.20;1.00
35635;DHT22;21757;43.610;1.440;2023-05-07T03:18:09;16.20;1.00
35635;DHT22;21757;43.610;1.440;2023-05-07T03:20:35;16.20;1.00
35635;DHT22;21757;43.610;1.440;2023-05-07T03:23:02;16.20;1.00
35635;DHT22;21757;43.610;1.440;2023-05-07T03:25:28;16.30;1.00
35635;DHT22;21757;43.610;1.440;2023-05-07T03:27:56;16.30;1.00
35635;DHT22;21757;43.610;1.440;2023-05-07T03:30:21;16.30;1.00
35635;DHT22;21757;43.610;1.440;2023-05-07T03:32:47;16.40;1.00
35635;DHT22;21757;43.610;1.440;2023-05-07T03:35:13;16.50;1.00
35635;DHT22;21757;43.610;1.440;2023-05-07T03:37:39;16.50;1.00
35635;DHT22;21757;43.610;1.440;2023-05-07T03:40:06;16.50;1.00
35635;DHT22;21757;43.610;1.440;2023-05-07T03:42:32;16.50;12.50
35635;DHT22;21757;43.610;1.440;2023-05-07T03:44:57;16.60;1.00
35635;DHT22;21757;43.610;1.440;2023-05-07T03:47:23;16.60;1.00
35635;DHT22;21757;43.610;1.440;2023-05-07T03:49:49;16.60;1.00
35635;DHT22;21757;43.610;1.440;2023-05-07T03:52:15;16.50;1.00
35635;DHT22;21757;43.610;1.440;2023-05-07T03:54:41;16.50;99.90
35635;DHT22;21757;43.610;1.440;2023-05-07T03:57:07;16.50;38.80
35635;DHT22;21757;43.610;1.440;2023-05-07T03:59:32;16.50;99.90
35635;DHT22;21757;43.610;1.440;2023-05-07T04:01:58;16.60;99.90
35635;DHT22;21757;43.610;1.440;2023-05-07T04:04:24;16.50;99.90
35635;DHT22;21757;43.610;1.440;2023-05-07T04:06:50;16.60;99.90
35635;DHT22;21757;43.610;1.440;2023-05-07T04:09:15;16.50;1.00
35635;DHT22;21757;43.610;1.440;2023-05-07T04:11:41;16.50;99.90
35635;DHT22;21757;43.610;1.440;2023-05-07T04:14:07;16.40;74.60
35635;DHT22;21757;43.610;1.440;2023-05-07T04:16:34;16.40;99.90
35635;DHT22;21757;43.610;1.440;2023-05-07T04:18:59;16.40;99.90
35635;DHT22;21757;43.610;1.440;2023-05-07T04:21:25;16.40;62.00
35635;DHT22;21757;43.610;1.440;2023-05-07T04:23:51;16.40;99.90
35635;DHT22;21757;43.610;1.440;2023-05-07T04:26:17;16.40;99.90
35635;DHT22;21757;43.610;1.440;2023-05-07T04:28:43;16.30;99.90
35635;DHT22;21757;43.610;1.440;2023-05-07T04:31:09;16.40;93.60
35635;DHT22;21757;43.610;1.440;2023-05-07T04:33:35;16.40;99.90
35635;DHT22;21757;43.610;1.440;2023-05-07T04:36:04;16.40;33.90
35635;DHT22;21757;43.610;1.440;2023-05-07T04:38:31;16.40;99.90
35635;DHT22;21757;43.610;1.440;2023-05-07T04:40:58;16.30;99.90
35635;DHT22;21757;43.610;1.440;2023-05-07T04:43:23;16.30;43.50
35635;DHT22;21757;43.610;1.440;2023-05-07T04:45:51;16.20;99.90
35635;DHT22;21757;43.610;1.440;2023-05-07T04:48:17;16.20;99.90
35635;DHT22;21757;43.610;1.440;2023-05-07T04:53:15;16.10;99.90
35635;DHT22;21757;43.610;1.440;2023-05-07T04:55:41;16.20;99.90
35635;DHT22;21757;43.610;1.440;2023-05-07T04:58:08;16.20;98.70
35635;DHT22;21757;43.610;1.440;2023-05-07T05:00:33;16.20;99.90
35635;DHT22;21757;43.610;1.440;2023-05-07T05:02:59;16.30;99.90
35635;DHT22;21757;43.610;1.440;2023-05-07T05:05:25;16.20;99.90
35635;DHT22;21757;43.610;1.440;2023-05-07T05:07:50;16.20;99.90
35635;DHT22;21757;43.610;1.440;2023-05-07T05:10:17;16.20;99.90
35635;DHT22;21757;43.610;1.440;2023-05-07T05:12:43;16.30;99.90
35635;DHT22;21757;43.610;1.440;2023-05-07T05:15:11;16.20;99.90
35635;DHT22;21757;43.610;1.440;2023-05-07T05:17:38;16.20;99.90
35635;DHT22;21757;43.610;1.440;2023-05-07T05:20:04;16.30;99.90
35635;DHT22;21757;43.610;1.440;2023-05-07T05:22:31;16.40;99.90
35635;DHT22;21757;43.610;1.440;2023-05-07T05:24:57;16.40;99.90
35635;DHT22;21757;43.610;1.440;2023-05-07T05:27:23;16.40;99.90
35635;DHT22;21757;43.610;1.440;2023-05-07T05:29:48;16.40;99.90
35635;DHT22;21757;43.610;1.440;2023-05-07T05:32:14;16.40;99.90
35635;DHT22;21757;43.610;1.440;2023-05-07T05:34:40;16.40;99.90
35635;DHT22;21757;43.610;1.440;2023-05-07T05:37:05;16.40;99.90
35635;DHT22;21757;43.610;1.440;2023-05-07T05:39:31;16.50;99.90
35635;DHT22;21757;43.610;1.440;2023-05-07T05:41:57;16.60;99.90
35635;DHT22;21757;43.610;1.440;2023-05-07T05:44:22;16.60;99.90
35635;DHT22;21757;43.610;1.440;2023-05-07T05:46:48;16.60;99.90
35635;DHT22;21757;43.610;1.440;2023-05-07T05:49:15;16.60;99.90
35635;DHT22;21757;43.610;1.440;2023-05-07T05:51:41;16.70;99.90
35635;DHT22;21757;43.610;1.440;2023-05-07T05:54:07;16.70;99.90
35635;DHT22;21757;43.610;1.440;2023-05-07T05:56:33;16.80;99.90
35635;DHT22;21757;43.610;1.440;2023-05-07T05:58:58;16.80;99.90
35635;DHT22;21757;43.610;1.440;2023-05-07T06:01:24;16.70;99.90
35635;DHT22;21757;43.610;1.440;2023-05-07T06:03:50;16.90;99.90
35635;DHT22;21757;43.610;1.440;2023-05-07T06:06:15;16.90;99.90
35635;DHT22;21757;43.610;1.440;2023-05-07T06:08:41;16.80;99.90
35635;DHT22;21757;43.610;1.440;2023-05-07T06:11:07;16.70;99.90
35635;DHT22;21757;43.610;1.440;2023-05-07T06:13:33;16.60;99.90
35635;DHT22;21757;43.610;1.440;2023-05-07T06:15:58;16.60;94.90
35635;DHT22;21757;43.610;1.440;2023-05-07T06:18:24;16.70;99.90
35635;DHT22;21757;43.610;1.440;2023-05-07T06:20:51;16.70;99.90
35635;DHT22;21757;43.610;1.440;2023-05-07T06:23:17;16.70;99.90
35635;DHT22;21757;43.610;1.440;2023-05-07T06:25:48;16.70;99.90
35635;DHT22;21757;43.610;1.440;2023-05-07T06:28:13;16.90;99.90
35635;DHT22;21757;43.610;1.440;2023-05-07T06:30:39;16.80;99.90
35635;DHT22;21757;43.610;1.440;2023-05-07T06:33:05;16.70;99.90
35635;DHT22;21757;43.610;1.440;2023-05-07T06:35:31;16.70;99.90
35635;DHT22;21757;43.610;1.440;2023-05-07T06:37:57;16.80;99.90
35635;DHT22;21757;43.610;1.440;2023-05-07T06:40:22;16.80;99.90
35635;DHT22;21757;43.610;1.440;2023-05-07T06:42:48;16.80;99.90
35635;DHT22;21757;43.610;1.440;2023-05-07T06:45:14;16.90;99.90
35635;DHT22;21757;43.610;1.440;2023-05-07T06:47:40;16.90;99.90
35635;DHT22;21757;43.610;1.440;2023-05-07T06:50:06;16.90;99.90
35635;DHT22;21757;43.610;1.440;2023-05-07T06:52:32;16.90;99.90
35635;DHT22;21757;43.610;1.440;2023-05-07T06:54:58;16.80;99.90
35635;DHT22;21757;43.610;1.440;2023-05-07T06:57:24;16.90;99.90
35635;DHT22;21757;43.610;1.440;2023-05-07T06:59:50;16.90;99.90
35635;DHT22;21757;43.610;1.440;2023-05-07T07:02:15;17.20;99.90
35635;DHT22;21757;43.610;1.440;2023-05-07T07:04:41;17.20;99.90
35635;DHT22;21757;43.610;1.440;2023-05-07T07:07:07;17.30;99.90
35635;DHT22;21757;43.610;1.440;2023-05-07T07:09:36;17.20;99.90
35635;DHT22;21757;43.610;1.440;2023-05-07T07:12:01;17.10;99.90
35635;DHT22;21757;43.610;1.440;2023-05-07T07:14:27;17.00;99.90
35635;DHT22;21757;43.610;1.440;2023-05-07T07:16:53;16.80;99.90
35635;DHT22;21757;43.610;1.440;2023-05-07T07:19:18;16.90;99.90
35635;DHT22;21757;43.610;1.440;2023-05-07T07:21:45;16.90;99.90
35635;DHT22;21757;43.610;1.440;2023-05-07T07:24:11;17.00;99.90
35635;DHT22;21757;43.610;1.440;2023-05-07T07:26:37;17.10;99.90
35635;DHT22;21757;43.610;1.440;2023-05-07T07:29:03;17.10;99.90
35635;DHT22;21757;43.610;1.440;2023-05-07T07:31:28;17.50;99.90
35635;DHT22;21757;43.610;1.440;2023-05-07T07:33:54;17.80;1.00
35635;DHT22;21757;43.610;1.440;2023-05-07T07:36:20;18.00;99.90
35635;DHT22;21757;43.610;1.440;2023-05-07T07:38:46;17.80;99.90
35635;DHT22;21757;43.610;1.440;2023-05-07T07:41:11;17.70;99.90
35635;DHT22;21757;43.610;1.440;2023-05-07T07:43:37;17.80;99.90
35635;DHT22;21757;43.610;1.440;2023-05-07T07:46:03;18.00;99.90
35635;DHT22;21757;43.610;1.440;2023-05-07T07:48:28;18.20;99.90
35635;DHT22;21757;43.610;1.440;2023-05-07T07:50:54;17.90;99.90
35635;DHT22;21757;43.610;1.440;2023-05-07T07:53:20;18.00;99.90
35635;DHT22;21757;43.610;1.440;2023-05-07T07:55:45;18.00;44.40
35635;DHT22;21757;43.610;1.440;2023-05-07T07:58:11;18.40;1.00
35635;DHT22;21757;43.610;1.440;2023-05-07T08:00:37;18.50;1.00
35635;DHT22;21757;43.610;1.440;2023-05-07T08:03:02;18.30;1.00
35635;DHT22;21757;43.610;1.440;2023-05-07T08:05:28;18.50;1.00
35635;DHT22;21757;43.610;1.440;2023-05-07T08:07:54;18.60;1.00
35635;DHT22;21757;43.610;1.440;2023-05-07T08:10:21;18.50;1.00
35635;DHT22;21757;43.610;1.440;2023-05-07T08:12:48;18.60;1.00
35635;DHT22;21757;43.610;1.440;2023-05-07T08:15:14;19.00;1.00
35635;DHT22;21757;43.610;1.440;2023-05-07T08:17:40;19.10;1.00
35635;DHT22;21757;43.610;1.440;2023-05-07T08:20:06;19.40;1.00
35635;DHT22;21757;43.610;1.440;2023-05-07T08:22:34;19.50;1.00
35635;DHT22;21757;43.610;1.440;2023-05-07T08:25:03;19.20;1.00
35635;DHT22;21757;43.610;1.440;2023-05-07T08:27:29;19.20;1.00
35635;DHT22;21757;43.610;1.440;2023-05-07T08:29:54;19.40;1.00
35635;DHT22;21757;43.610;1.440;2023-05-07T08:32:20;19.60;1.00
35635;DHT22;21757;43.610;1.440;2023-05-07T08:34:47;19.30;1.00
35635;DHT22;21757;43.610;1.440;2023-05-07T08:37:12;19.30;1.00
35635;DHT22;21757;43.610;1.440;2023-05-07T08:39:38;19.80;1.00
35635;DHT22;21757;43.610;1.440;2023-05-07T08:42:04;19.90;1.00
35635;DHT22;21757;43.610;1.440;2023-05-07T08:44:34;20.20;1.00
35635;DHT22;21757;43.610;1.440;2023-05-07T08:47:01;19.90;1.00
35635;DHT22;21757;43.610;1.440;2023-05-07T08:49:30;19.50;1.00
35635;DHT22;21757;43.610;1.440;2023-05-07T08:51:56;19.80;1.00
35635;DHT22;21757;43.610;1.440;2023-05-07T08:54:22;20.20;1.00
35635;DHT22;21757;43.610;1.440;2023-05-07T08:56:48;20.00;1.00
35635;DHT22;21757;43.610;1.440;2023-05-07T08:59:14;19.60;1.00
35635;DHT22;21757;43.610;1.440;2023-05-07T09:01:39;18.90;1.00
35635;DHT22;21757;43.610;1.440;2023-05-07T09:04:05;18.70;1.00
35635;DHT22;21757;43.610;1.440;2023-05-07T09:06:33;18.70;1.00
35635;DHT22;21757;43.610;1.440;2023-05-07T09:09:02;18.70;1.00
35635;DHT22;21757;43.610;1.440;2023-05-07T09:11:30;18.90;1.00
35635;DHT22;21757;43.610;1.440;2023-05-07T09:14:02;19.40;1.00
35635;DHT22;21757;43.610;1.440;2023-05-07T09:16:30;19.40;1.00
35635;DHT22;21757;43.610;1.440;2023-05-07T09:18:59;19.90;1.00
35635;DHT22;21757;43.610;1.440;2023-05-07T09:21:27;20.50;1.00
35635;DHT22;21757;43.610;1.440;2023-05-07T09:23:54;20.20;1.00
35635;DHT22;21757;43.610;1.440;2023-05-07T09:26:22;20.50;1.00
35635;DHT22;21757;43.610;1.440;2023-05-07T09:28:48;21.10;1.00
35635;DHT22;21757;43.610;1.440;2023-05-07T09:31:14;21.00;1.00
35635;DHT22;21757;43.610;1.440;2023-05-07T09:33:40;20.50;1.00
35635;DHT22;21757;43.610;1.440;2023-05-07T09:36:07;20.40;1.00
35635;DHT22;21757;43.610;1.440;2023-05-07T09:38:33;21.00;1.00
35635;DHT22;21757;43.610;1.440;2023-05-07T09:41:03;20.90;1.00
35635;DHT22;21757;43.610;1.440;2023-05-07T09:43:32;20.60;1.00
35635;DHT22;21757;43.610;1.440;2023-05-07T09:46:03;19.80;1.00
35635;DHT22;21757;43.610;1.440;2023-05-07T09:48:32;19.60;1.00
35635;DHT22;21757;43.610;1.440;2023-05-07T09:51:02;19.40;1.00
35635;DHT22;21757;43.610;1.440;2023-05-07T09:53:29;19.40;1.00
35635;DHT22;21757;43.610;1.440;2023-05-07T09:55:57;19.30;1.00
35635;DHT22;21757;43.610;1.440;2023-05-07T09:58:24;19.30;1.00
35635;DHT22;21757;43.610;1.440;2023-05-07T10:00:51;19.20;1.00
35635;DHT22;21757;43.610;1.440;2023-05-07T10:03:19;19.00;1.00
35635;DHT22;21757;43.610;1.440;2023-05-07T10:05:45;18.90;1.00
35635;DHT22;21757;43.610;1.440;2023-05-07T10:08:13;18.70;1.00
35635;DHT22;21757;43.610;1.440;2023-05-07T10:10:39;18.60;1.00
35635;DHT22;21757;43.610;1.440;2023-05-07T10:13:05;18.60;1.00
35635;DHT22;21757;43.610;1.440;2023-05-07T10:15:36;19.00;1.00
35635;DHT22;21757;43.610;1.440;2023-05-07T10:18:03;19.00;1.00
35635;DHT22;21757;43.610;1.440;2023-05-07T10:20:30;19.10;1.00
35635;DHT22;21757;43.610;1.440;2023-05-07T10:22:57;19.40;1.00
35635;DHT22;21757;43.610;1.440;2023-05-07T10:25:30;20.10;1.00
35635;DHT22;21757;43.610;1.440;2023-05-07T10:27:59;20.50;1.00
35635;DHT22;21757;43.610;1.440;2023-05-07T10:33:08;20.90;1.00
35635;DHT22;21757;43.610;1.440;2023-05-07T10:35:43;21.20;1.00
35635;DHT22;21757;43.610;1.440;2023-05-07T10:38:11;21.90;1.00
35635;DHT22;21757;43.610;1.440;2023-05-07T10:40:37;21.50;1.00
35635;DHT22;21757;43.610;1.440;2023-05-07T10:43:05;21.50;1.00
35635;DHT22;21757;43.610;1.440;2023-05-07T10:45:31;21.70;1.00
35635;DHT22;21757;43.610;1.440;2023-05-07T10:48:16;21.60;1.00
35635;DHT22;21757;43.610;1.440;2023-05-07T10:50:45;21.60;1.00
35635;DHT22;21757;43.610;1.440;2023-05-07T10:53:23;21.90;1.00
35635;DHT22;21757;43.610;1.440;2023-05-07T10:58:37;21.60;1.00
35635;DHT22;21757;43.610;1.440;2023-05-07T11:01:03;22.00;1.00
35635;DHT22;21757;43.610;1.440;2023-05-07T11:03:29;22.00;1.00
35635;DHT22;21757;43.610;1.440;2023-05-07T11:06:15;21.80;1.00
35635;DHT22;21757;43.610;1.440;2023-05-07T11:08:57;22.10;1.00
35635;DHT22;21757;43.610;1.440;2023-05-07T11:11:46;21.70;1.00
35635;DHT22;21757;43.610;1.440;2023-05-07T11:17:08;21.60;1.00
35635;DHT22;21757;43.610;1.440;2023-05-07T11:19:51;21.50;1.00
35635;DHT22;21757;43.610;1.440;2023-05-07T11:25:05;20.20;1.00
35635;DHT22;21757;43.610;1.440;2023-05-07T11:27:32;21.30;1.00
35635;DHT22;21757;43.610;1.440;2023-05-07T11:29:58;21.60;1.00
35635;DHT22;21757;43.610;1.440;2023-05-07T11:32:25;22.00;1.00
35635;DHT22;21757;43.610;1.440;2023-05-07T11:34:52;22.30;1.00
35635;DHT22;21757;43.610;1.440;2023-05-07T11:37:19;22.30;1.00
35635;DHT22;21757;43.610;1.440;2023-05-07T11:39:44;22.50;1.00
35635;DHT22;21757;43.610;1.440;2023-05-07T11:42:30;23.10;1.00
35635;DHT22;21757;43.610;1.440;2023-05-07T11:44:56;23.20;1.00
35635;DHT22;21757;43.610;1.440;2023-05-07T11:47:22;23.30;1.00
35635;DHT22;21757;43.610;1.440;2023-05-07T11:49:48;23.10;1.00
35635;DHT22;21757;43.610;1.440;2023-05-07T11:52:15;22.70;1.00
35635;DHT22;21757;43.610;1.440;2023-05-07T11:54:41;22.50;1.00
35635;DHT22;21757;43.610;1.440;2023-05-07T11:57:06;22.10;1.00
35635;DHT22;21757;43.610;1.440;2023-05-07T11:59:41;22.00;1.00
35635;DHT22;21757;43.610;1.440;2023-05-07T12:02:10;21.80;1.00
35635;DHT22;21757;43.610;1.440;2023-05-07T12:04:38;21.60;1.00
35635;DHT22;21757;43.610;1.440;2023-05-07T12:07:03;21.60;1.00
35635;DHT22;21757;43.610;1.440;2023-05-07T12:09:29;21.30;1.00
35635;DHT22;21757;43.610;1.440;2023-05-07T12:11:55;21.40;1.00
35635;DHT22;21757;43.610;1.440;2023-05-07T12:14:21;21.60;1.00
35635;DHT22;21757;43.610;1.440;2023-05-07T12:16:47;21.70;1.00
35635;DHT22;21757;43.610;1.440;2023-05-07T12:19:13;22.30;1.00
35635;DHT22;21757;43.610;1.440;2023-05-07T12:21:40;22.10;1.00
35635;DHT22;21757;43.610;1.440;2023-05-07T12:24:06;22.30;1.00
35635;DHT22;21757;43.610;1.440;2023-05-07T12:26:31;22.50;1.00
35635;DHT22;21757;43.610;1.440;2023-05-07T12:28:57;22.40;1.00
35635;DHT22;21757;43.610;1.440;2023-05-07T12:31:25;22.50;1.00
35635;DHT22;21757;43.610;1.440;2023-05-07T12:33:52;22.70;1.00
35635;DHT22;21757;43.610;1.440;2023-05-07T12:36:18;23.10;1.00
35635;DHT22;21757;43.610;1.440;2023-05-07T12:38:43;23.70;1.00
35635;DHT22;21757;43.610;1.440;2023-05-07T12:41:10;24.10;1.00
35635;DHT22;21757;43.610;1.440;2023-05-07T12:43:37;23.70;1.00
35635;DHT22;21757;43.610;1.440;2023-05-07T12:46:06;23.70;1.00
35635;DHT22;21757;43.610;1.440;2023-05-07T12:48:32;23.10;1.00
35635;DHT22;21757;43.610;1.440;2023-05-07T12:50:59;22.50;1.00
35635;DHT22;21757;43.610;1.440;2023-05-07T12:53:26;22.30;1.00
35635;DHT22;21757;43.610;1.440;2023-05-07T12:55:54;22.20;1.00
35635;DHT22;21757;43.610;1.440;2023-05-07T13:00:50;22.00;1.00
35635;DHT22;21757;43.610;1.440;2023-05-07T13:03:35;22.20;1.00
35635;DHT22;21757;43.610;1.440;2023-05-07T13:06:03;22.20;1.00
35635;DHT22;21757;43.610;1.440;2023-05-07T13:08:31;22.30;1.00
35635;DHT22;21757;43.610;1.440;2023-05-07T13:10:59;21.90;1.00
35635;DHT22;21757;43.610;1.440;2023-05-07T13:13:25;21.90;1.00
35635;DHT22;21757;43.610;1.440;2023-05-07T13:15:51;21.80;1.00
35635;DHT22;21757;43.610;1.440;2023-05-07T13:18:17;21.70;1.00
35635;DHT22;21757;43.610;1.440;2023-05-07T13:20:43;21.60;1.00
35635;DHT22;21757;43.610;1.440;2023-05-07T13:23:10;22.00;1.00
35635;DHT22;21757;43.610;1.440;2023-05-07T13:25:37;22.50;1.00
35635;DHT22;21757;43.610;1.440;2023-05-07T13:28:03;22.90;1.00
35635;DHT22;21757;43.610;1.440;2023-05-07T13:30:30;22.80;1.00
35635;DHT22;21757;43.610;1.440;2023-05-07T13:32:56;23.50;1.00
35635;DHT22;21757;43.610;1.440;2023-05-07T13:35:22;24.00;1.00
35635;DHT22;21757;43.610;1.440;2023-05-07T13:37:47;23.70;1.00
35635;DHT22;21757;43.610;1.440;2023-05-07T13:40:14;23.50;1.00
35635;DHT22;21757;43.610;1.440;2023-05-07T13:42:40;23.30;1.00
35635;DHT22;21757;43.610;1.440;2023-05-07T13:45:07;22.70;1.00
35635;DHT22;21757;43.610;1.440;2023-05-07T13:47:33;22.70;1.00
35635;DHT22;21757;43.610;1.440;2023-05-07T13:49:58;22.70;1.00
35635;DHT22;21757;43.610;1.440;2023-05-07T13:52:24;22.50;1.00
35635;DHT22;21757;43.610;1.440;2023-05-07T13:54:51;22.00;1.00
35635;DHT22;21757;43.610;1.440;2023-05-07T13:57:19;21.80;1.00
35635;DHT22;21757;43.610;1.440;2023-05-07T13:59:45;22.00;81.50
35635;DHT22;21757;43.610;1.440;2023-05-07T14:02:10;22.30;81.20
35635;DHT22;21757;43.610;1.440;2023-05-07T14:04:37;22.30;81.30
35635;DHT22;21757;43.610;1.440;2023-05-07T14:07:03;22.30;80.80
35635;DHT22;21757;43.610;1.440;2023-05-07T14:09:29;22.00;81.60
35635;DHT22;21757;43.610;1.440;2023-05-07T14:11:54;21.60;81.50
35635;DHT22;21757;43.610;1.440;2023-05-07T14:14:20;21.50;82.20
35635;DHT22;21757;43.610;1.440;2023-05-07T14:16:46;21.70;82.60
35635;DHT22;21757;43.610;1.440;2023-05-07T14:19:12;21.90;81.90
35635;DHT22;21757;43.610;1.440;2023-05-07T14:21:38;22.30;80.90
35635;DHT22;21757;43.610;1.440;2023-05-07T14:24:06;22.40;80.40
35635;DHT22;21757;43.610;1.440;2023-05-07T14:26:32;22.70;79.40
35635;DHT22;21757;43.610;1.440;2023-05-07T14:28:58;22.30;79.30
35635;DHT22;21757;43.610;1.440;2023-05-07T14:31:24;22.50;80.00
35635;DHT22;21757;43.610;1.440;2023-05-07T14:33:50;22.50;79.50
35635;DHT22;21757;43.610;1.440;2023-05-07T14:36:16;22.90;79.30
35635;DHT22;21757;43.610;1.440;2023-05-07T14:38:43;23.30;78.20
35635;DHT22;21757;43.610;1.440;2023-05-07T14:41:08;24.20;76.40
35635;DHT22;21757;43.610;1.440;2023-05-07T14:43:34;23.90;75.40
35635;DHT22;21757;43.610;1.440;2023-05-07T14:46:00;23.20;75.40
35635;DHT22;21757;43.610;1.440;2023-05-07T14:48:25;23.20;75.80
35635;DHT22;21757;43.610;1.440;2023-05-07T14:50:51;22.90;76.40
35635;DHT22;21757;43.610;1.440;2023-05-07T14:53:17;22.70;77.40
35635;DHT22;21757;43.610;1.440;2023-05-07T14:55:42;22.40;78.00
35635;DHT22;21757;43.610;1.440;2023-05-07T14:58:10;21.90;79.40
35635;DHT22;21757;43.610;1.440;2023-05-07T15:00:36;22.20;79.90
35635;DHT22;21757;43.610;1.440;2023-05-07T15:03:06;22.00;87.40
35635;DHT22;21757;43.610;1.440;2023-05-07T15:05:32;19.60;99.90
35635;DHT22;21757;43.610;1.440;2023-05-07T15:07:58;19.20;1.00
35635;DHT22;21757;43.610;1.440;2023-05-07T15:10:24;18.90;1.00
35635;DHT22;21757;43.610;1.440;2023-05-07T15:12:50;19.60;99.90
35635;DHT22;21757;43.610;1.440;2023-05-07T15:15:16;20.10;99.90
35635;DHT22;21757;43.610;1.440;2023-05-07T15:17:41;20.90;99.90
35635;DHT22;21757;43.610;1.440;2023-05-07T15:20:07;21.40;1.00
35635;DHT22;21757;43.610;1.440;2023-05-07T15:22:33;21.20;1.00
35635;DHT22;21757;43.610;1.440;2023-05-07T15:24:59;21.40;1.00
35635;DHT22;21757;43.610;1.440;2023-05-07T15:27:25;21.60;1.00
35635;DHT22;21757;43.610;1.440;2023-05-07T15:29:51;21.60;1.00
35635;DHT22;21757;43.610;1.440;2023-05-07T15:32:17;22.00;1.00
35635;DHT22;21757;43.610;1.440;2023-05-07T15:34:43;22.40;1.00
35635;DHT22;21757;43.610;1.440;2023-05-07T15:37:08;22.70;1.00
35635;DHT22;21757;43.610;1.440;2023-05-07T15:39:34;22.20;1.00
35635;DHT22;21757;43.610;1.440;2023-05-07T15:42:00;21.80;1.00
35635;DHT22;21757;43.610;1.440;2023-05-07T15:44:26;21.70;1.00
35635;DHT22;21757;43.610;1.440;2023-05-07T15:46:54;21.70;1.00
35635;DHT22;21757;43.610;1.440;2023-05-07T15:49:19;21.00;1.00
35635;DHT22;21757;43.610;1.440;2023-05-07T15:51:47;18.00;99.90
35635;DHT22;21757;43.610;1.440;2023-05-07T15:54:13;17.40;1.00
35635;DHT22;21757;43.610;1.440;2023-05-07T15:56:38;17.40;37.70